sensor_id;sensor_type;location;lat;lon;timestamp;P1;durP1;ratioP1;P2;durP2;ratioP2
36839;SDS011;24406;51.640;9.566;2023-08-21T00:02:10;9.90;;;6.68;;
36839;SDS011;24406;51.640;9.566;2023-08-21T00:07:15;7.32;;;6.47;;
36839;SDS011;24406;51.640;9.566;2023-08-21T00:12:24;9.27;;;6.03;;
36839;SDS011;24406;51.640;9.566;2023-08-21T00:17:26;9.73;;;8.00;;
36839;SDS011;24406;51.640;9.566;2023-08-21T00:22:29;10.57;;;6.97;;
36839;SDS011;24406;51.640;9.566;2023-08-21T00:27:31;9.00;;;8.07;;
36839;SDS011;24406;51.640;9.566;2023-08-21T00:32:37;12.25;;;7.45;;
36839;SDS011;24406;51.640;9.566;2023-08-21T00:37:40;11.60;;;7.13;;
36839;SDS011;24406;51.640;9.566;2023-08-21T00:42:49;11.13;;;5.53;;
36839;SDS011;24406;51.640;9.566;2023-08-21T00:47:57;12.57;;;5.75;;
36839;SDS011;24406;51.640;9.566;2023-08-21T00:53:03;5.82;;;5.30;;
36839;SDS011;24406;51.640;9.566;2023-08-21T00:58:09;6.55;;;5.25;;
36839;SDS011;24406;51.640;9.566;2023-08-21T01:03:12;8.07;;;5.13;;
36839;SDS011;24406;51.640;9.566;2023-08-21T01:08:19;7.78;;;4.50;;
36839;SDS011;24406;51.640;9.566;2023-08-21T01:13:30;11.32;;;4.28;;
36839;SDS011;24406;51.640;9.566;2023-08-21T01:18:37;13.88;;;3.72;;
36839;SDS011;24406;51.640;9.566;2023-08-21T01:23:44;6.55;;;3.45;;
36839;SDS011;24406;51.640;9.566;2023-08-21T01:28:47;9.45;;;4.22;;
36839;SDS011;24406;51.640;9.566;2023-08-21T01:33:52;10.38;;;3.92;;
36839;SDS011;24406;51.640;9.566;2023-08-21T01:38:58;8.95;;;3.95;;
36839;SDS011;24406;51.640;9.566;2023-08-21T01:44:03;6.18;;;3.42;;
36839;SDS011;24406;51.640;9.566;2023-08-21T01:49:08;7.95;;;3.35;;
36839;SDS011;24406;51.640;9.566;2023-08-21T01:54:17;4.50;;;3.43;;
36839;SDS011;24406;51.640;9.566;2023-08-21T01:59:21;5.50;;;3.03;;
36839;SDS011;24406;51.640;9.566;2023-08-21T02:04:26;6.40;;;2.67;;
36839;SDS011;24406;51.640;9.566;2023-08-21T02:09:29;12.40;;;3.60;;
36839;SDS011;24406;51.640;9.566;2023-08-21T02:14:31;9.13;;;4.05;;
36839;SDS011;24406;51.640;9.566;2023-08-21T02:19:35;7.95;;;3.40;;
36839;SDS011;24406;51.640;9.566;2023-08-21T02:24:40;3.58;;;2.83;;
36839;SDS011;24406;51.640;9.566;2023-08-21T02:29:46;8.23;;;3.00;;
36839;SDS011;24406;51.640;9.566;2023-08-21T02:34:53;3.88;;;2.90;;
36839;SDS011;24406;51.640;9.566;2023-08-21T02:39:58;7.07;;;3.40;;
36839;SDS011;24406;51.640;9.566;2023-08-21T02:45:03;4.05;;;3.65;;
36839;SDS011;24406;51.640;9.566;2023-08-21T02:50:08;7.65;;;4.10;;
36839;SDS011;24406;51.640;9.566;2023-08-21T02:55:16;9.23;;;3.75;;
36839;SDS011;24406;51.640;9.566;2023-08-21T03:00:28;7.45;;;4.20;;
36839;SDS011;24406;51.640;9.566;2023-08-21T03:05:35;4.15;;;3.50;;
36839;SDS011;24406;51.640;9.566;2023-08-21T03:10:42;7.95;;;4.15;;
36839;SDS011;24406;51.640;9.566;2023-08-21T03:15:46;6.63;;;3.85;;
36839;SDS011;24406;51.640;9.566;2023-08-21T03:20:49;6.50;;;3.60;;
36839;SDS011;24406;51.640;9.566;2023-08-21T03:25:53;7.75;;;3.90;;
36839;SDS011;24406;51.640;9.566;2023-08-21T03:30:54;10.20;;;4.18;;
36839;SDS011;24406;51.640;9.566;2023-08-21T03:35:56;3.58;;;3.28;;
36839;SDS011;24406;51.640;9.566;2023-08-21T03:41:03;7.22;;;4.05;;
36839;SDS011;24406;51.640;9.566;2023-08-21T03:46:08;11.33;;;4.30;;
36839;SDS011;24406;51.640;9.566;2023-08-21T03:51:12;5.88;;;4.10;;
36839;SDS011;24406;51.640;9.566;2023-08-21T03:56:17;10.27;;;3.90;;
36839;SDS011;24406;51.640;9.566;2023-08-21T04:01:25;4.75;;;3.63;;
36839;SDS011;24406;51.640;9.566;2023-08-21T04:06:30;10.75;;;3.30;;
36839;SDS011;24406;51.640;9.566;2023-08-21T04:11:37;9.65;;;4.05;;
36839;SDS011;24406;51.640;9.566;2023-08-21T04:16:48;7.85;;;4.15;;
36839;SDS011;24406;51.640;9.566;2023-08-21T04:21:53;5.97;;;3.15;;
36839;SDS011;24406;51.640;9.566;2023-08-21T04:39:54;9.23;;;4.05;;
36839;SDS011;24406;51.640;9.566;2023-08-21T04:51:50;8.27;;;3.88;;
36839;SDS011;24406;51.640;9.566;2023-08-21T05:11:10;6.35;;;4.28;;
36839;SDS011;24406;51.640;9.566;2023-08-21T05:16:16;5.47;;;3.90;;
36839;SDS011;24406;51.640;9.566;2023-08-21T05:21:21;6.88;;;4.07;;
36839;SDS011;24406;51.640;9.566;2023-08-21T05:26:27;6.72;;;4.20;;
36839;SDS011;24406;51.640;9.566;2023-08-21T05:31:31;7.03;;;4.13;;
36839;SDS011;24406;51.640;9.566;2023-08-21T05:36:42;8.80;;;4.18;;
36839;SDS011;24406;51.640;9.566;2023-08-21T05:41:46;5.50;;;3.55;;
36839;SDS011;24406;51.640;9.566;2023-08-21T05:46:49;8.38;;;3.97;;
36839;SDS011;24406;51.640;9.566;2023-08-21T05:51:58;13.75;;;4.05;;
36839;SDS011;24406;51.640;9.566;2023-08-21T05:57:27;6.72;;;3.88;;
36839;SDS011;24406;51.640;9.566;2023-08-21T06:02:35;6.55;;;3.47;;
36839;SDS011;24406;51.640;9.566;2023-08-21T06:07:44;7.90;;;3.67;;
36839;SDS011;24406;51.640;9.566;2023-08-21T06:12:47;4.30;;;3.67;;
36839;SDS011;24406;51.640;9.566;2023-08-21T06:17:53;5.10;;;3.72;;
36839;SDS011;24406;51.640;9.566;2023-08-21T06:22:55;5.32;;;3.33;;
36839;SDS011;24406;51.640;9.566;2023-08-21T06:28:05;9.65;;;3.75;;
36839;SDS011;24406;51.640;9.566;2023-08-21T06:33:09;8.13;;;3.15;;
36839;SDS011;24406;51.640;9.566;2023-08-21T06:38:11;9.13;;;3.35;;
36839;SDS011;24406;51.640;9.566;2023-08-21T06:43:16;8.32;;;3.40;;
36839;SDS011;24406;51.640;9.566;2023-08-21T06:48:25;4.53;;;3.38;;
36839;SDS011;24406;51.640;9.566;2023-08-21T06:53:35;5.82;;;3.30;;
36839;SDS011;24406;51.640;9.566;2023-08-21T07:04:46;5.93;;;2.53;;
36839;SDS011;24406;51.640;9.566;2023-08-21T07:09:48;5.55;;;2.90;;
36839;SDS011;24406;51.640;9.566;2023-08-21T07:15:13;8.23;;;3.13;;
36839;SDS011;24406;51.640;9.566;2023-08-21T07:20:33;5.90;;;2.72;;
36839;SDS011;24406;51.640;9.566;2023-08-21T07:25:49;7.28;;;3.50;;
36839;SDS011;24406;51.640;9.566;2023-08-21T07:31:02;5.75;;;3.17;;
36839;SDS011;24406;51.640;9.566;2023-08-21T07:36:33;4.57;;;3.38;;
36839;SDS011;24406;51.640;9.566;2023-08-21T07:41:46;4.85;;;3.30;;
36839;SDS011;24406;51.640;9.566;2023-08-21T07:46:58;6.05;;;3.10;;
36839;SDS011;24406;51.640;9.566;2023-08-21T07:52:08;7.82;;;2.90;;
36839;SDS011;24406;51.640;9.566;2023-08-21T07:57:14;6.38;;;2.83;;
36839;SDS011;24406;51.640;9.566;2023-08-21T08:02:25;4.85;;;2.90;;
36839;SDS011;24406;51.640;9.566;2023-08-21T08:07:30;4.82;;;2.38;;
36839;SDS011;24406;51.640;9.566;2023-08-21T08:12:40;9.73;;;2.45;;
36839;SDS011;24406;51.640;9.566;2023-08-21T08:17:44;5.43;;;2.20;;
36839;SDS011;24406;51.640;9.566;2023-08-21T08:22:48;6.05;;;1.90;;
36839;SDS011;24406;51.640;9.566;2023-08-21T08:27:51;5.97;;;1.60;;
36839;SDS011;24406;51.640;9.566;2023-08-21T08:32:53;3.80;;;1.80;;
36839;SDS011;24406;51.640;9.566;2023-08-21T08:37:57;4.50;;;1.52;;
36839;SDS011;24406;51.640;9.566;2023-08-21T08:42:59;4.28;;;1.80;;
36839;SDS011;24406;51.640;9.566;2023-08-21T08:48:08;4.35;;;1.42;;
36839;SDS011;24406;51.640;9.566;2023-08-21T08:53:22;3.33;;;1.55;;
36839;SDS011;24406;51.640;9.566;2023-08-21T08:58:33;3.47;;;1.60;;
36839;SDS011;24406;51.640;9.566;2023-08-21T09:03:57;6.63;;;1.65;;
36839;SDS011;24406;51.640;9.566;2023-08-21T09:09:12;4.13;;;1.83;;
36839;SDS011;24406;51.640;9.566;2023-08-21T09:14:21;3.67;;;1.40;;
36839;SDS011;24406;51.640;9.566;2023-08-21T09:19:35;4.70;;;1.40;;
36839;SDS011;24406;51.640;9.566;2023-08-21T09:30:08;2.63;;;1.83;;
36839;SDS011;24406;51.640;9.566;2023-08-21T09:35:14;3.97;;;1.53;;
36839;SDS011;24406;51.640;9.566;2023-08-21T09:40:22;4.65;;;1.73;;
36839;SDS011;24406;51.640;9.566;2023-08-21T09:45:27;3.42;;;1.95;;
36839;SDS011;24406;51.640;9.566;2023-08-21T09:50:35;6.65;;;2.30;;
36839;SDS011;24406;51.640;9.566;2023-08-21T09:55:39;5.22;;;2.58;;
36839;SDS011;24406;51.640;9.566;2023-08-21T10:00:41;5.30;;;2.38;;
36839;SDS011;24406;51.640;9.566;2023-08-21T10:05:46;5.18;;;2.15;;
36839;SDS011;24406;51.640;9.566;2023-08-21T10:10:50;4.05;;;1.98;;
36839;SDS011;24406;51.640;9.566;2023-08-21T10:15:56;3.23;;;2.07;;
36839;SDS011;24406;51.640;9.566;2023-08-21T10:21:10;3.72;;;2.00;;
36839;SDS011;24406;51.640;9.566;2023-08-21T10:26:13;6.97;;;2.30;;
36839;SDS011;24406;51.640;9.566;2023-08-21T10:31:28;6.13;;;2.40;;
36839;SDS011;24406;51.640;9.566;2023-08-21T10:36:38;6.55;;;2.25;;
36839;SDS011;24406;51.640;9.566;2023-08-21T10:47:58;4.03;;;2.40;;
36839;SDS011;24406;51.640;9.566;2023-08-21T10:53:00;4.93;;;2.35;;
36839;SDS011;24406;51.640;9.566;2023-08-21T10:58:04;4.38;;;2.22;;
36839;SDS011;24406;51.640;9.566;2023-08-21T11:03:11;4.32;;;2.50;;
36839;SDS011;24406;51.640;9.566;2023-08-21T11:08:17;2.60;;;2.40;;
36839;SDS011;24406;51.640;9.566;2023-08-21T11:13:22;5.18;;;3.10;;
36839;SDS011;24406;51.640;9.566;2023-08-21T11:18:34;3.08;;;2.42;;
36839;SDS011;24406;51.640;9.566;2023-08-21T11:23:52;4.05;;;2.72;;
36839;SDS011;24406;51.640;9.566;2023-08-21T11:29:00;4.38;;;2.78;;
36839;SDS011;24406;51.640;9.566;2023-08-21T11:34:07;3.47;;;2.63;;
36839;SDS011;24406;51.640;9.566;2023-08-21T11:39:11;3.88;;;2.72;;
36839;SDS011;24406;51.640;9.566;2023-08-21T11:44:14;9.23;;;2.80;;
36839;SDS011;24406;51.640;9.566;2023-08-21T11:49:20;5.67;;;2.50;;
36839;SDS011;24406;51.640;9.566;2023-08-21T11:54:25;3.05;;;2.75;;
36839;SDS011;24406;51.640;9.566;2023-08-21T11:59:31;5.25;;;3.25;;
36839;SDS011;24406;51.640;9.566;2023-08-21T12:04:32;4.05;;;3.00;;
36839;SDS011;24406;51.640;9.566;2023-08-21T12:09:35;4.28;;;3.45;;
36839;SDS011;24406;51.640;9.566;2023-08-21T12:14:44;4.50;;;3.63;;
36839;SDS011;24406;51.640;9.566;2023-08-21T12:19:46;6.18;;;4.03;;
36839;SDS011;24406;51.640;9.566;2023-08-21T12:24:52;4.97;;;3.50;;
36839;SDS011;24406;51.640;9.566;2023-08-21T12:29:55;4.20;;;3.40;;
36839;SDS011;24406;51.640;9.566;2023-08-21T12:34:57;4.18;;;3.50;;
36839;SDS011;24406;51.640;9.566;2023-08-21T12:40:01;4.68;;;3.80;;
36839;SDS011;24406;51.640;9.566;2023-08-21T12:45:09;8.30;;;3.95;;
36839;SDS011;24406;51.640;9.566;2023-08-21T12:50:15;6.13;;;4.10;;
36839;SDS011;24406;51.640;9.566;2023-08-21T12:55:19;6.97;;;3.90;;
36839;SDS011;24406;51.640;9.566;2023-08-21T13:00:25;7.82;;;3.85;;
36839;SDS011;24406;51.640;9.566;2023-08-21T13:05:36;4.22;;;3.70;;
36839;SDS011;24406;51.640;9.566;2023-08-21T13:10:40;4.35;;;3.75;;
36839;SDS011;24406;51.640;9.566;2023-08-21T13:15:48;3.90;;;3.15;;
36839;SDS011;24406;51.640;9.566;2023-08-21T13:20:52;10.63;;;3.40;;
36839;SDS011;24406;51.640;9.566;2023-08-21T13:25:58;6.65;;;3.15;;
36839;SDS011;24406;51.640;9.566;2023-08-21T13:31:03;5.25;;;3.45;;
36839;SDS011;24406;51.640;9.566;2023-08-21T13:36:07;3.83;;;3.25;;
36839;SDS011;24406;51.640;9.566;2023-08-21T13:41:15;3.38;;;3.05;;
36839;SDS011;24406;51.640;9.566;2023-08-21T13:46:21;5.65;;;3.63;;
36839;SDS011;24406;51.640;9.566;2023-08-21T13:51:22;5.20;;;3.53;;
36839;SDS011;24406;51.640;9.566;2023-08-21T13:56:29;5.75;;;3.10;;
36839;SDS011;24406;51.640;9.566;2023-08-21T14:01:43;3.15;;;2.70;;
36839;SDS011;24406;51.640;9.566;2023-08-21T14:06:50;3.15;;;2.65;;
36839;SDS011;24406;51.640;9.566;2023-08-21T14:11:52;5.50;;;3.00;;
36839;SDS011;24406;51.640;9.566;2023-08-21T14:16:58;7.30;;;3.38;;
36839;SDS011;24406;51.640;9.566;2023-08-21T14:22:01;4.22;;;2.88;;
36839;SDS011;24406;51.640;9.566;2023-08-21T14:27:05;6.05;;;3.60;;
36839;SDS011;24406;51.640;9.566;2023-08-21T14:32:15;4.53;;;3.47;;
36839;SDS011;24406;51.640;9.566;2023-08-21T14:37:19;3.40;;;2.70;;
36839;SDS011;24406;51.640;9.566;2023-08-21T14:42:24;7.82;;;3.13;;
36839;SDS011;24406;51.640;9.566;2023-08-21T14:47:42;5.65;;;2.90;;
36839;SDS011;24406;51.640;9.566;2023-08-21T14:52:53;3.60;;;2.97;;
36839;SDS011;24406;51.640;9.566;2023-08-21T14:57:59;9.68;;;3.20;;
36839;SDS011;24406;51.640;9.566;2023-08-21T15:03:18;4.80;;;3.10;;
36839;SDS011;24406;51.640;9.566;2023-08-21T15:08:24;4.28;;;2.80;;
36839;SDS011;24406;51.640;9.566;2023-08-21T15:13:34;5.50;;;3.00;;
36839;SDS011;24406;51.640;9.566;2023-08-21T15:18:39;4.13;;;2.85;;
36839;SDS011;24406;51.640;9.566;2023-08-21T15:23:58;9.57;;;2.75;;
36839;SDS011;24406;51.640;9.566;2023-08-21T15:29:09;7.75;;;2.70;;
36839;SDS011;24406;51.640;9.566;2023-08-21T15:34:21;3.85;;;2.47;;
36839;SDS011;24406;51.640;9.566;2023-08-21T15:39:25;7.38;;;2.58;;
36839;SDS011;24406;51.640;9.566;2023-08-21T15:44:41;6.55;;;2.80;;
36839;SDS011;24406;51.640;9.566;2023-08-21T15:49:57;6.80;;;2.67;;
36839;SDS011;24406;51.640;9.566;2023-08-21T15:55:23;10.68;;;2.70;;
36839;SDS011;24406;51.640;9.566;2023-08-21T16:00:32;7.93;;;2.70;;
36839;SDS011;24406;51.640;9.566;2023-08-21T16:11:29;5.70;;;2.28;;
36839;SDS011;24406;51.640;9.566;2023-08-21T16:17:01;4.03;;;2.55;;
36839;SDS011;24406;51.640;9.566;2023-08-21T16:22:11;6.45;;;2.83;;
36839;SDS011;24406;51.640;9.566;2023-08-21T16:27:38;7.85;;;2.47;;
36839;SDS011;24406;51.640;9.566;2023-08-21T16:33:31;4.47;;;2.47;;
36839;SDS011;24406;51.640;9.566;2023-08-21T16:38:51;4.75;;;2.38;;
36839;SDS011;24406;51.640;9.566;2023-08-21T16:44:00;6.55;;;2.53;;
36839;SDS011;24406;51.640;9.566;2023-08-21T16:49:02;9.60;;;2.38;;
36839;SDS011;24406;51.640;9.566;2023-08-21T16:54:09;8.45;;;2.50;;
36839;SDS011;24406;51.640;9.566;2023-08-21T16:59:13;6.43;;;2.40;;
36839;SDS011;24406;51.640;9.566;2023-08-21T17:04:41;6.47;;;2.47;;
36839;SDS011;24406;51.640;9.566;2023-08-21T17:09:45;5.65;;;2.38;;
36839;SDS011;24406;51.640;9.566;2023-08-21T17:14:52;12.88;;;3.50;;
36839;SDS011;24406;51.640;9.566;2023-08-21T17:19:54;10.02;;;2.88;;
36839;SDS011;24406;51.640;9.566;2023-08-21T17:25:00;4.88;;;2.67;;
36839;SDS011;24406;51.640;9.566;2023-08-21T17:30:12;16.75;;;5.57;;
36839;SDS011;24406;51.640;9.566;2023-08-21T17:35:17;6.95;;;2.40;;
36839;SDS011;24406;51.640;9.566;2023-08-21T17:40:20;6.45;;;2.88;;
36839;SDS011;24406;51.640;9.566;2023-08-21T17:45:32;8.13;;;2.83;;
36839;SDS011;24406;51.640;9.566;2023-08-21T17:57:02;7.72;;;2.88;;
36839;SDS011;24406;51.640;9.566;2023-08-21T18:02:11;7.32;;;2.90;;
36839;SDS011;24406;51.640;9.566;2023-08-21T18:07:18;6.85;;;2.35;;
36839;SDS011;24406;51.640;9.566;2023-08-21T18:12:24;8.13;;;2.67;;
36839;SDS011;24406;51.640;9.566;2023-08-21T18:17:53;9.32;;;2.63;;
36839;SDS011;24406;51.640;9.566;2023-08-21T18:22:57;3.53;;;2.00;;
36839;SDS011;24406;51.640;9.566;2023-08-21T18:28:02;5.72;;;2.83;;
36839;SDS011;24406;51.640;9.566;2023-08-21T18:33:04;6.95;;;2.78;;
36839;SDS011;24406;51.640;9.566;2023-08-21T18:38:07;6.57;;;2.45;;
36839;SDS011;24406;51.640;9.566;2023-08-21T18:48:32;7.65;;;2.85;;
36839;SDS011;24406;51.640;9.566;2023-08-21T18:53:54;8.43;;;2.83;;
36839;SDS011;24406;51.640;9.566;2023-08-21T18:58:57;8.25;;;3.00;;
36839;SDS011;24406;51.640;9.566;2023-08-21T19:04:02;6.03;;;2.70;;
36839;SDS011;24406;51.640;9.566;2023-08-21T19:09:12;9.50;;;3.00;;
36839;SDS011;24406;51.640;9.566;2023-08-21T19:14:27;5.85;;;2.70;;
36839;SDS011;24406;51.640;9.566;2023-08-21T19:19:44;5.88;;;3.28;;
36839;SDS011;24406;51.640;9.566;2023-08-21T19:25:23;10.00;;;2.80;;
36839;SDS011;24406;51.640;9.566;2023-08-21T19:30:45;8.13;;;2.63;;
36839;SDS011;24406;51.640;9.566;2023-08-21T19:36:20;3.05;;;2.35;;
36839;SDS011;24406;51.640;9.566;2023-08-21T19:52:49;4.57;;;2.42;;
36839;SDS011;24406;51.640;9.566;2023-08-21T20:04:28;12.32;;;3.50;;
36839;SDS011;24406;51.640;9.566;2023-08-21T20:09:51;8.85;;;3.40;;
36839;SDS011;24406;51.640;9.566;2023-08-21T20:15:11;4.20;;;2.70;;
36839;SDS011;24406;51.640;9.566;2023-08-21T20:20:53;9.05;;;2.67;;
36839;SDS011;24406;51.640;9.566;2023-08-21T20:54:19;10.43;;;3.33;;
36839;SDS011;24406;51.640;9.566;2023-08-21T20:59:26;8.27;;;2.65;;
36839;SDS011;24406;51.640;9.566;2023-08-21T21:06:56;12.30;;;2.92;;
36839;SDS011;24406;51.640;9.566;2023-08-21T21:47:17;9.85;;;2.88;;
36839;SDS011;24406;51.640;9.566;2023-08-21T22:15:05;15.77;;;3.20;;
36839;SDS011;24406;51.640;9.566;2023-08-21T22:20:21;6.38;;;2.92;;
36839;SDS011;24406;51.640;9.566;2023-08-21T22:25:49;7.47;;;2.80;;
36839;SDS011;24406;51.640;9.566;2023-08-21T22:36:22;7.65;;;3.05;;
36839;SDS011;24406;51.640;9.566;2023-08-21T22:41:32;7.82;;;2.90;;
36839;SDS011;24406;51.640;9.566;2023-08-21T22:46:54;10.80;;;3.30;;
36839;SDS011;24406;51.640;9.566;2023-08-21T22:52:03;10.80;;;2.97;;
36839;SDS011;24406;51.640;9.566;2023-08-21T22:57:10;4.35;;;2.60;;
36839;SDS011;24406;51.640;9.566;2023-08-21T23:02:20;6.65;;;2.95;;
36839;SDS011;24406;51.640;9.566;2023-08-21T23:07:27;10.25;;;3.15;;
36839;SDS011;24406;51.640;9.566;2023-08-21T23:12:37;3.92;;;2.47;;
36839;SDS011;24406;51.640;9.566;2023-08-21T23:17:44;8.20;;;2.72;;
36839;SDS011;24406;51.640;9.566;2023-08-21T23:23:01;5.38;;;3.17;;
36839;SDS011;24406;51.640;9.566;2023-08-21T23:28:11;8.43;;;3.17;;
36839;SDS011;24406;51.640;9.566;2023-08-21T23:33:12;12.52;;;2.60;;
36839;SDS011;24406;51.640;9.566;2023-08-21T23:38:21;7.43;;;2.45;;
36839;SDS011;24406;51.640;9.566;2023-08-21T23:43:28;8.98;;;2.92;;
36839;SDS011;24406;51.640;9.566;2023-08-21T23:48:30;5.10;;;2.58;;
36839;SDS011;24406;51.640;9.566;2023-08-21T23:53:50;4.97;;;2.22;;
